SLCG weather

Charagua Airport
Cordillera, Santa Cruz Department, Bolivia

Public forecast

Using degrees Celsius for public forecast. Weather courtesy of forecast.io.

Closest aviation weather report (METAR) to Charagua Airport

Closest report is Camiri Airport, 23.3 nm (43.2 km) SW. Retrieved 2019/12/10 21:00 UTC (23 minutes ago):

SLCA 102100Z 00000KT 9999 FEW036 BKN070 29/20 Q1011

Closest aviation forecast (TAF) to Charagua Airport

Closest forecast is El Trompillo Airport, 118.5 nm (219.5 km) N. Retrieved 2019/12/10 18:06 UTC (3 hours ago):

TAF SLET 101530Z 1018/1118 32014KT 9999 SCT020 SCT070 TX32/1019Z TN22 /1110Z TEMPO 1105/1108 30004KT BKN010 BKN070